Bloxham, United Kingdom
Current Conditions -  °F | °C
As of 3:20 PM on Thursday 18 Dec 2014 (Local Time) from EGTK Reporting Station
Overcast Overcast  
Wind Chill: 54°   Ceiling: 1200
Heat Index: 54°   Visibility: 6mi
Dew Point: 54°   Wind: 30mph
Humidity: 100%   Direction: 240°WSW
Pressure: 29.77"   Gusts: 41mph
Location:  52.02°N, 1.38°W
Report Text: EGTK 181520Z 24026G36KT 9999 BKN012 OVC014 12/12 Q1008
Loading
Personal Weather Stations






























Interactive Weather Map New forecast layout! Learn more

10-Day Weather Forecast

Advertisements
Track Severe Weather on mobile